Time;durP1;ratioP1;P1;durP2;ratioP2;P2;SDS_P1;SDS_P2;PMS_P1;PMS_P2;Temp;Humidity;BMP_temperature;BMP_pressure;BME280_temperature;BME280_humidity;BME280_pressure;Samples;Min_cycle;Max_cycle;Signal;HPM_P1;HPM_P2
2023/08/14 00:02:23;;;;;;;6.32;3.10;;;24.20;70.30;;;;;;4999825;28;20694;-78
2023/08/14 00:04:50;;;;;;;3.72;2.85;;;24.30;70.40;;;;;;4999744;28;20288;-77
2023/08/14 00:07:17;;;;;;;4.30;3.17;;;24.20;70.20;;;;;;4999798;28;20192;-77
2023/08/14 00:09:46;;;;;;;4.05;3.15;;;24.20;70.40;;;;;;5000317;28;20192;-77
2023/08/14 00:12:13;;;;;;;4.47;2.80;;;24.20;70.30;;;;;;4999769;28;20591;-78
2023/08/14 00:14:40;;;;;;;4.93;3.28;;;24.30;70.40;;;;;;4999752;28;20201;-78
2023/08/14 00:17:06;;;;;;;3.38;3.08;;;24.30;70.80;;;;;;5000379;28;20220;-78
2023/08/14 00:19:33;;;;;;;5.35;3.30;;;24.20;71.20;;;;;;4999814;28;20230;-78
2023/08/14 00:22:00;;;;;;;5.45;3.00;;;24.20;71.60;;;;;;4999406;28;20236;-78
2023/08/14 00:24:27;;;;;;;3.38;2.92;;;24.20;71.60;;;;;;4999445;28;20207;-78
2023/08/14 00:26:56;;;;;;;6.03;3.30;;;24.20;71.60;;;;;;5023541;23;20247;-81
2023/08/14 00:29:23;;;;;;;4.38;3.10;;;24.20;71.40;;;;;;5019462;28;20547;-81
2023/08/14 00:31:50;;;;;;;4.55;2.80;;;24.20;71.30;;;;;;5004060;28;20314;-81
2023/08/14 00:34:17;;;;;;;3.22;3.00;;;24.20;71.20;;;;;;4983725;28;20664;-81
2023/08/14 00:36:44;;;;;;;3.95;2.90;;;24.30;71.30;;;;;;4983665;28;20220;-81
2023/08/14 00:39:11;;;;;;;4.55;2.90;;;24.20;71.10;;;;;;4998383;28;20207;-80
2023/08/14 00:41:38;;;;;;;3.10;2.70;;;24.20;71.00;;;;;;4999867;28;20311;-80
2023/08/14 00:44:08;;;;;;;4.90;2.85;;;24.20;70.90;;;;;;5000388;28;20209;-80
2023/08/14 00:46:34;;;;;;;3.30;3.00;;;24.20;70.80;;;;;;4999445;28;20200;-80
2023/08/14 00:49:02;;;;;;;3.13;2.90;;;24.20;70.70;;;;;;4999591;28;20197;-80
2023/08/14 00:51:29;;;;;;;5.60;2.67;;;24.20;70.70;;;;;;4999591;28;20224;-80
2023/08/14 00:53:56;;;;;;;2.83;2.60;;;24.30;70.80;;;;;;4999591;28;20671;-80
2023/08/14 00:56:23;;;;;;;4.10;2.90;;;24.20;70.60;;;;;;4999932;28;20216;-80
2023/08/14 00:58:50;;;;;;;3.08;2.80;;;24.20;70.60;;;;;;5000436;28;20247;-81
2023/08/14 01:01:18;;;;;;;3.70;2.83;;;24.20;70.60;;;;;;5001411;28;20227;-81
2023/08/14 01:03:45;;;;;;;3.88;2.95;;;24.20;70.60;;;;;;5001276;28;20197;-81
2023/08/14 01:06:12;;;;;;;4.53;3.00;;;24.20;70.70;;;;;;5000899;28;20196;-81
2023/08/14 01:08:39;;;;;;;6.90;2.80;;;24.20;70.60;;;;;;5000207;28;20204;-81
2023/08/14 01:11:09;;;;;;;2.85;2.63;;;24.20;70.70;;;;;;5000205;28;20278;-80
2023/08/14 01:13:40;;;;;;;4.03;2.60;;;24.20;70.70;;;;;;5000608;28;20291;-80
2023/08/14 01:16:08;;;;;;;3.28;2.60;;;24.20;70.80;;;;;;4999248;28;20220;-80
2023/08/14 01:18:38;;;;;;;3.53;2.80;;;24.20;70.80;;;;;;4999098;28;20200;-80
2023/08/14 01:21:12;;;;;;;3.25;2.65;;;24.20;70.80;;;;;;4998846;28;20259;-80
2023/08/14 01:23:47;;;;;;;4.15;2.60;;;24.20;70.80;;;;;;4998953;28;20223;-80
2023/08/14 01:26:16;;;;;;;4.35;2.70;;;24.20;70.80;;;;;;4999524;28;20306;-80
2023/08/14 01:28:43;;;;;;;3.00;2.70;;;24.20;70.80;;;;;;4999156;28;20204;-80
2023/08/14 01:31:10;;;;;;;2.90;2.30;;;24.20;70.80;;;;;;4998613;28;20220;-80
2023/08/14 01:33:37;;;;;;;4.03;2.47;;;24.20;70.90;;;;;;4998997;28;20193;-80
2023/08/14 01:36:08;;;;;;;3.35;2.50;;;24.10;70.70;;;;;;4999060;28;20679;-80
2023/08/14 01:38:39;;;;;;;3.88;2.60;;;24.20;70.80;;;;;;4998989;28;20209;-80
2023/08/14 01:41:09;;;;;;;5.68;2.85;;;24.20;71.00;;;;;;4999404;28;20224;-80
2023/08/14 01:43:39;;;;;;;2.80;2.60;;;24.10;71.60;;;;;;4998947;28;20192;-80
2023/08/14 01:46:06;;;;;;;3.22;2.90;;;24.10;70.80;;;;;;4999687;28;20193;-80
2023/08/14 01:48:33;;;;;;;2.95;2.60;;;24.20;70.90;;;;;;4999676;28;20670;-82
2023/08/14 01:51:02;;;;;;;3.90;2.85;;;24.20;71.00;;;;;;5015565;28;20211;-83
2023/08/14 01:53:29;;;;;;;4.22;2.90;;;24.20;70.90;;;;;;4998164;28;20193;-83
2023/08/14 01:55:56;;;;;;;3.08;2.78;;;24.10;70.90;;;;;;5001881;28;20668;-83
2023/08/14 01:58:23;;;;;;;3.67;2.70;;;24.20;71.20;;;;;;5007063;28;20208;-81
2023/08/14 02:00:51;;;;;;;3.75;2.78;;;24.20;71.10;;;;;;5011704;28;20683;-81
2023/08/14 02:03:18;;;;;;;3.90;2.70;;;24.10;71.00;;;;;;5005378;28;20209;-81
2023/08/14 02:05:45;;;;;;;2.75;2.50;;;24.20;71.20;;;;;;4985696;28;20219;-81
2023/08/14 02:08:13;;;;;;;3.20;2.90;;;24.20;71.20;;;;;;5000612;28;20207;-81
2023/08/14 02:10:40;;;;;;;4.53;2.72;;;24.10;71.90;;;;;;4984194;28;20216;-80
2023/08/14 02:13:07;;;;;;;3.33;2.53;;;24.10;71.00;;;;;;4984088;28;20192;-80
2023/08/14 02:15:34;;;;;;;2.78;2.50;;;24.10;71.00;;;;;;5015575;28;20188;-80
2023/08/14 02:18:02;;;;;;;4.07;2.47;;;24.20;71.10;;;;;;4997847;28;20678;-80
2023/08/14 02:20:30;;;;;;;2.90;2.70;;;24.10;71.00;;;;;;4997984;28;20703;-80
2023/08/14 02:22:58;;;;;;;4.05;2.53;;;24.20;71.10;;;;;;4997710;28;20246;-81
2023/08/14 02:25:25;;;;;;;2.97;2.75;;;24.20;70.90;;;;;;4997845;28;20200;-81
2023/08/14 02:27:52;;;;;;;3.03;2.50;;;24.20;71.00;;;;;;4997807;28;20200;-81
2023/08/14 02:30:19;;;;;;;3.13;2.65;;;24.10;70.80;;;;;;4982713;28;20690;-81
2023/08/14 02:32:46;;;;;;;4.03;2.40;;;24.20;70.90;;;;;;4981962;28;20204;-81
2023/08/14 02:35:15;;;;;;;3.33;2.42;;;24.10;70.80;;;;;;4998294;28;20203;-81
2023/08/14 02:37:42;;;;;;;2.70;2.50;;;24.10;70.70;;;;;;4998002;28;20217;-81
2023/08/14 02:40:09;;;;;;;3.78;2.45;;;24.10;70.70;;;;;;4997667;28;20211;-81
2023/08/14 02:42:36;;;;;;;2.53;2.33;;;24.10;70.70;;;;;;4997754;28;20339;-81
2023/08/14 02:45:04;;;;;;;3.42;2.38;;;24.10;70.70;;;;;;4997627;28;20195;-81
2023/08/14 02:47:31;;;;;;;2.60;2.40;;;24.10;70.60;;;;;;4998312;28;20219;-81
2023/08/14 02:49:58;;;;;;;2.70;2.50;;;24.10;70.70;;;;;;4997500;28;20701;-81
2023/08/14 02:52:28;;;;;;;2.60;2.40;;;24.10;70.80;;;;;;4997417;28;20203;-81
2023/08/14 02:54:55;;;;;;;2.88;2.42;;;24.10;70.60;;;;;;4997333;28;20267;-80
2023/08/14 02:57:23;;;;;;;2.60;2.40;;;24.10;70.70;;;;;;5014874;28;20204;-80
2023/08/14 02:59:50;;;;;;;2.65;2.45;;;24.10;70.60;;;;;;4997259;28;20192;-80
2023/08/14 03:02:17;;;;;;;2.60;2.30;;;24.10;70.50;;;;;;4996923;28;20304;-80
2023/08/14 03:04:44;;;;;;;2.60;2.40;;;24.10;70.40;;;;;;4999230;28;20629;-80
2023/08/14 03:07:11;;;;;;;2.60;2.40;;;24.10;71.40;;;;;;4998477;28;20201;-80
2023/08/14 03:09:39;;;;;;;3.40;2.58;;;24.10;70.50;;;;;;4998605;28;20227;-80
2023/08/14 03:12:07;;;;;;;3.78;2.40;;;24.10;70.50;;;;;;4998058;28;20224;-80
2023/08/14 03:14:34;;;;;;;2.88;2.30;;;24.20;70.60;;;;;;4997480;28;20211;-80
2023/08/14 03:17:02;;;;;;;3.63;2.50;;;24.10;70.20;;;;;;4997177;28;20226;-80
2023/08/14 03:19:29;;;;;;;2.63;2.42;;;24.20;70.10;;;;;;5014873;28;20216;-80
2023/08/14 03:21:56;;;;;;;2.75;2.55;;;24.30;70.00;;;;;;4997334;28;20583;-80
2023/08/14 03:24:23;;;;;;;2.70;2.50;;;24.30;69.90;;;;;;4997163;28;20197;-81
2023/08/14 03:26:52;;;;;;;4.35;2.40;;;24.30;69.50;;;;;;4997468;28;20565;-81
2023/08/14 03:29:20;;;;;;;3.72;2.50;;;24.50;69.40;;;;;;4997762;28;20227;-81
2023/08/14 03:31:47;;;;;;;2.85;2.28;;;24.50;69.20;;;;;;4981366;28;20220;-81
2023/08/14 03:34:14;;;;;;;2.38;2.17;;;24.60;69.20;;;;;;4997992;28;20200;-81
2023/08/14 03:36:42;;;;;;;2.90;2.45;;;24.60;68.80;;;;;;4981032;28;20216;-81
2023/08/14 03:39:12;;;;;;;2.53;2.33;;;24.70;68.70;;;;;;4997318;28;20224;-81
2023/08/14 03:41:39;;;;;;;2.45;2.28;;;24.70;68.60;;;;;;4997202;28;20224;-81
2023/08/14 03:44:08;;;;;;;4.45;2.40;;;24.70;68.50;;;;;;4997481;28;20196;-81
2023/08/14 03:46:35;;;;;;;2.70;2.50;;;24.70;68.30;;;;;;4997078;28;20204;-81
2023/08/14 03:49:04;;;;;;;2.58;2.10;;;24.70;68.30;;;;;;4997139;28;20200;-81
2023/08/14 03:51:30;;;;;;;3.30;2.20;;;24.70;68.20;;;;;;4996911;28;20216;-81
2023/08/14 03:53:58;;;;;;;2.97;2.30;;;24.80;68.10;;;;;;4997628;28;20255;-81
2023/08/14 03:56:25;;;;;;;2.40;2.20;;;24.80;68.00;;;;;;4996925;28;20212;-81
2023/08/14 03:58:52;;;;;;;2.67;2.30;;;24.80;68.00;;;;;;4996746;28;20192;-81
2023/08/14 04:01:21;;;;;;;2.45;2.25;;;24.70;67.90;;;;;;5014357;28;20688;-81
2023/08/14 04:03:48;;;;;;;2.92;2.30;;;24.80;67.90;;;;;;4996875;28;20196;-81
2023/08/14 04:06:15;;;;;;;3.53;2.30;;;24.70;67.70;;;;;;4996884;28;20192;-81
2023/08/14 04:08:42;;;;;;;3.47;2.42;;;24.80;67.70;;;;;;4980645;28;20262;-81
2023/08/14 04:11:09;;;;;;;2.72;2.30;;;24.80;67.70;;;;;;4997135;28;20307;-81
2023/08/14 04:13:37;;;;;;;3.20;2.30;;;24.80;68.30;;;;;;5015499;28;20296;-80
2023/08/14 04:16:04;;;;;;;2.40;2.20;;;24.80;67.50;;;;;;5000016;28;20200;-80
2023/08/14 04:18:33;;;;;;;2.38;2.22;;;24.70;67.50;;;;;;5000689;28;20224;-80
2023/08/14 04:21:01;;;;;;;3.28;2.15;;;24.70;67.50;;;;;;4984482;28;20217;-81
2023/08/14 04:23:28;;;;;;;3.20;2.38;;;24.70;67.50;;;;;;4999971;28;20215;-81
2023/08/14 04:25:55;;;;;;;3.50;2.15;;;24.70;67.40;;;;;;4984283;28;20199;-80
2023/08/14 04:28:23;;;;;;;2.75;2.30;;;24.70;67.30;;;;;;5000093;28;20247;-81
2023/08/14 04:30:50;;;;;;;2.38;1.88;;;24.70;67.30;;;;;;5000275;28;20212;-81
2023/08/14 04:33:18;;;;;;;4.80;2.40;;;24.70;67.10;;;;;;4999911;28;20215;-85
2023/08/14 04:35:49;;;;;;;2.30;2.10;;;24.70;67.30;;;;;;5000241;28;20199;-81
2023/08/14 04:38:16;;;;;;;4.70;2.30;;;24.70;67.10;;;;;;5001219;28;20270;-83
2023/08/14 04:40:47;;;;;;;4.15;2.58;;;24.70;67.00;;;;;;5000130;28;20254;-84
2023/08/14 04:43:15;;;;;;;6.80;2.40;;;24.60;67.40;;;;;;4985268;28;20196;-83
2023/08/14 04:45:42;;;;;;;4.13;2.50;;;24.40;67.70;;;;;;4986896;28;20571;-84
2023/08/14 04:48:09;;;;;;;4.40;2.65;;;24.20;68.10;;;;;;5003402;28;20503;-83
2023/08/14 04:50:36;;;;;;;5.15;2.63;;;24.00;68.60;;;;;;5005224;28;20220;-83
2023/08/14 04:53:04;;;;;;;4.60;2.30;;;23.90;68.80;;;;;;5000874;28;20200;-83
2023/08/14 04:55:33;;;;;;;5.93;2.47;;;23.80;69.00;;;;;;5000940;28;20197;-83
2023/08/14 04:58:00;;;;;;;4.25;2.55;;;23.80;69.50;;;;;;5001267;28;20217;-84
2023/08/14 05:00:28;;;;;;;2.67;2.30;;;23.70;69.90;;;;;;5002741;28;20224;-83
2023/08/14 05:02:57;;;;;;;4.65;2.78;;;23.60;71.00;;;;;;4986125;28;20254;-83
2023/08/14 05:05:25;;;;;;;5.43;2.58;;;23.60;70.60;;;;;;5001817;28;20206;-83
2023/08/14 05:07:52;;;;;;;4.18;2.30;;;23.60;71.00;;;;;;5002598;28;20251;-83
2023/08/14 05:10:21;;;;;;;3.92;2.33;;;23.60;71.10;;;;;;5001402;28;20220;-83
2023/08/14 05:12:48;;;;;;;3.00;2.70;;;23.50;71.20;;;;;;4999733;28;20201;-83
2023/08/14 05:15:16;;;;;;;3.67;2.67;;;23.50;71.40;;;;;;4983605;28;20235;-83
2023/08/14 05:17:43;;;;;;;3.85;2.60;;;23.50;71.30;;;;;;5001515;28;20223;-82
2023/08/14 05:20:11;;;;;;;3.78;2.40;;;23.40;72.00;;;;;;5001800;28;20208;-84
2023/08/14 05:22:38;;;;;;;4.00;2.47;;;23.30;72.40;;;;;;5000771;28;20205;-82
2023/08/14 05:25:06;;;;;;;4.75;2.17;;;23.20;72.80;;;;;;5016321;28;20281;-83
2023/08/14 05:27:38;;;;;;;5.70;2.40;;;23.20;73.40;;;;;;5023207;28;20236;-83
2023/08/14 05:30:06;;;;;;;2.88;2.38;;;23.20;73.90;;;;;;5020840;28;20179;-82
2023/08/14 05:32:33;;;;;;;3.72;2.47;;;23.40;73.70;;;;;;4999125;28;20207;-82
2023/08/14 05:35:00;;;;;;;4.30;2.45;;;23.50;73.80;;;;;;4998493;28;20211;-83
2023/08/14 05:37:28;;;;;;;3.28;2.78;;;23.50;73.80;;;;;;4998534;28;20216;-83
2023/08/14 05:39:54;;;;;;;2.80;2.60;;;23.40;74.20;;;;;;4998735;28;20197;-86
2023/08/14 05:42:21;;;;;;;3.40;2.70;;;23.60;74.60;;;;;;4998486;28;20254;-81
2023/08/14 05:44:50;;;;;;;5.53;2.85;;;23.60;74.80;;;;;;4998561;28;20212;-80
2023/08/14 05:47:18;;;;;;;3.30;2.45;;;23.70;74.30;;;;;;4983220;28;20644;-82
2023/08/14 05:49:45;;;;;;;3.78;3.00;;;23.80;74.20;;;;;;4998256;28;20223;-80
2023/08/14 05:52:11;;;;;;;3.50;2.60;;;23.90;74.30;;;;;;4998706;28;20236;-80
2023/08/14 05:54:39;;;;;;;2.53;2.20;;;24.00;73.50;;;;;;4999233;28;20648;-80
2023/08/14 05:57:06;;;;;;;4.15;2.20;;;24.20;71.90;;;;;;4998586;28;20221;-80
2023/08/14 05:59:33;;;;;;;3.00;2.13;;;24.30;70.50;;;;;;4997976;28;20208;-80
2023/08/14 06:02:02;;;;;;;3.22;2.55;;;24.50;69.70;;;;;;4998203;28;20220;-80
2023/08/14 06:04:28;;;;;;;2.83;2.38;;;24.50;69.20;;;;;;4998430;28;20205;-81
2023/08/14 06:06:55;;;;;;;3.08;2.47;;;24.60;69.30;;;;;;4998133;28;20293;-81
2023/08/14 06:09:22;;;;;;;2.42;2.25;;;24.60;69.30;;;;;;4981959;28;20200;-80
2023/08/14 06:11:49;;;;;;;2.47;2.28;;;24.60;69.20;;;;;;4999249;28;20248;-80
2023/08/14 06:14:16;;;;;;;4.05;2.50;;;24.70;68.90;;;;;;4998668;28;20207;-80
2023/08/14 06:16:43;;;;;;;2.25;2.10;;;24.70;68.60;;;;;;4997593;28;20625;-81
2023/08/14 06:19:11;;;;;;;2.55;2.28;;;24.70;68.30;;;;;;4997821;28;20207;-81
2023/08/14 06:21:39;;;;;;;2.42;2.20;;;24.80;68.30;;;;;;4997883;28;20710;-80
2023/08/14 06:24:06;;;;;;;2.47;2.08;;;24.80;68.10;;;;;;4997583;28;20196;-80
2023/08/14 06:26:33;;;;;;;2.78;2.35;;;24.90;68.10;;;;;;4997503;28;20215;-80
2023/08/14 06:29:00;;;;;;;3.50;2.28;;;24.90;68.00;;;;;;4981504;28;20196;-80
2023/08/14 06:31:27;;;;;;;2.67;2.33;;;24.90;67.90;;;;;;4998045;28;20231;-80
2023/08/14 06:33:54;;;;;;;2.13;1.92;;;25.00;67.90;;;;;;4997618;28;20255;-81
2023/08/14 06:36:22;;;;;;;2.10;2.00;;;25.00;67.70;;;;;;4997372;28;20207;-81
2023/08/14 06:38:51;;;;;;;2.60;2.40;;;25.00;67.60;;;;;;4997934;28;20243;-81
2023/08/14 06:41:18;;;;;;;2.38;2.17;;;25.00;67.50;;;;;;4998393;28;20220;-81
2023/08/14 06:43:45;;;;;;;3.47;2.30;;;25.10;67.60;;;;;;4998205;28;20283;-81
2023/08/14 06:46:12;;;;;;;2.50;2.30;;;25.10;67.50;;;;;;4997278;28;20207;-81
2023/08/14 06:48:39;;;;;;;3.33;2.42;;;25.10;67.30;;;;;;4997370;28;20219;-81
2023/08/14 06:51:06;;;;;;;3.20;2.33;;;25.20;67.00;;;;;;4997632;28;20687;-81
2023/08/14 06:53:35;;;;;;;2.47;2.20;;;25.40;66.50;;;;;;4997948;28;20612;-81
2023/08/14 06:56:02;;;;;;;3.25;2.38;;;25.60;65.90;;;;;;4998453;28;20215;-80
2023/08/14 06:58:29;;;;;;;2.58;2.20;;;25.80;65.00;;;;;;4997759;28;20228;-80
2023/08/14 07:00:56;;;;;;;2.63;2.42;;;26.00;64.40;;;;;;4996905;28;20222;-81
2023/08/14 07:03:23;;;;;;;2.42;2.20;;;26.20;63.80;;;;;;4997692;28;20641;-81
2023/08/14 07:05:50;;;;;;;2.35;2.15;;;26.30;63.40;;;;;;4997464;28;20632;-81
2023/08/14 07:08:17;;;;;;;2.78;2.33;;;26.30;63.30;;;;;;4997449;28;20228;-81
2023/08/14 07:10:45;;;;;;;3.38;2.28;;;26.30;63.20;;;;;;5000310;28;20810;-81
2023/08/14 07:13:13;;;;;;;2.15;2.00;;;26.40;63.00;;;;;;5002038;28;20224;-81
2023/08/14 07:15:40;;;;;;;2.20;2.00;;;26.50;62.70;;;;;;4998611;28;20730;-81
2023/08/14 07:18:07;;;;;;;2.50;2.00;;;26.60;62.40;;;;;;4998781;28;20220;-81
2023/08/14 07:20:35;;;;;;;2.30;2.00;;;26.70;61.90;;;;;;4999702;28;20350;-81
2023/08/14 07:23:02;;;;;;;2.90;2.30;;;26.80;61.30;;;;;;4998850;28;20204;-81
2023/08/14 07:25:29;;;;;;;2.30;2.10;;;26.90;60.90;;;;;;4998370;28;20287;-81
2023/08/14 07:27:58;;;;;;;2.33;2.00;;;27.10;60.60;;;;;;4998972;28;20246;-81
2023/08/14 07:30:24;;;;;;;2.22;2.03;;;27.20;60.20;;;;;;4998576;28;20266;-80
2023/08/14 07:32:51;;;;;;;2.58;2.35;;;27.20;59.90;;;;;;4998741;28;20207;-81
2023/08/14 07:35:18;;;;;;;2.38;2.17;;;27.30;59.90;;;;;;4998734;28;20204;-80
2023/08/14 07:37:45;;;;;;;2.17;1.88;;;27.40;59.60;;;;;;4998759;28;20228;-80
2023/08/14 07:40:13;;;;;;;2.17;2.00;;;27.50;59.40;;;;;;4998171;28;20713;-80
2023/08/14 07:42:40;;;;;;;2.80;2.22;;;27.50;59.10;;;;;;4998194;28;20207;-80
2023/08/14 07:45:10;;;;;;;2.00;1.90;;;27.60;58.70;;;;;;4998312;28;20576;-81
2023/08/14 07:47:37;;;;;;;2.38;2.17;;;27.70;58.50;;;;;;4999353;28;20640;-81
2023/08/14 07:50:04;;;;;;;1.98;1.88;;;27.70;58.20;;;;;;5002607;28;20207;-80
2023/08/14 07:52:31;;;;;;;2.08;1.95;;;27.80;58.10;;;;;;5003049;28;20200;-80
2023/08/14 07:54:58;;;;;;;2.00;1.88;;;27.90;57.90;;;;;;5002083;28;20196;-80
2023/08/14 07:57:25;;;;;;;2.63;2.00;;;27.90;57.70;;;;;;5000964;28;20771;-81
2023/08/14 07:59:52;;;;;;;2.15;1.95;;;28.00;57.60;;;;;;5000772;28;20588;-81
2023/08/14 08:02:21;;;;;;;2.00;1.90;;;28.00;57.50;;;;;;5000965;28;20208;-80
2023/08/14 08:04:48;;;;;;;2.25;2.03;;;28.00;57.30;;;;;;5001383;28;20223;-80
2023/08/14 08:07:15;;;;;;;2.53;2.20;;;28.10;57.10;;;;;;4984792;28;20188;-80
2023/08/14 08:09:42;;;;;;;2.15;1.95;;;28.20;57.00;;;;;;5001174;28;20232;-80
2023/08/14 08:12:09;;;;;;;1.92;1.83;;;28.30;56.80;;;;;;5001359;28;20299;-81
2023/08/14 08:14:36;;;;;;;2.53;2.03;;;28.20;56.50;;;;;;5002561;28;20204;-81
2023/08/14 08:17:03;;;;;;;1.95;1.80;;;28.30;56.50;;;;;;5001602;28;20200;-80
2023/08/14 08:19:31;;;;;;;2.05;1.90;;;28.30;56.60;;;;;;5002003;28;20235;-81
2023/08/14 08:21:59;;;;;;;2.15;1.92;;;28.30;56.30;;;;;;5002256;28;20216;-81
2023/08/14 08:24:26;;;;;;;2.17;1.98;;;28.40;56.10;;;;;;5001750;28;20300;-80
2023/08/14 08:26:53;;;;;;;2.30;2.10;;;28.40;56.00;;;;;;5001550;28;20211;-80
2023/08/14 08:29:20;;;;;;;1.95;1.80;;;28.50;55.90;;;;;;5001494;28;20662;-81
2023/08/14 08:31:47;;;;;;;3.33;2.05;;;28.60;55.90;;;;;;5018938;28;20200;-80
2023/08/14 08:34:14;;;;;;;1.92;1.83;;;28.60;55.70;;;;;;4985251;28;20195;-79
2023/08/14 08:36:43;;;;;;;3.17;1.90;;;28.70;55.50;;;;;;5001040;28;20207;-81
2023/08/14 08:39:10;;;;;;;2.75;2.00;;;28.80;55.40;;;;;;5000856;28;20240;-81
2023/08/14 08:41:43;;;;;;;2.67;1.90;;;28.90;55.10;;;;;;5000629;28;20220;-80
2023/08/14 08:44:11;;;;;;;2.58;2.10;;;28.90;55.00;;;;;;5000373;28;20207;-80
2023/08/14 08:46:40;;;;;;;2.42;1.70;;;28.90;54.80;;;;;;5002765;28;20564;-80
2023/08/14 08:49:07;;;;;;;2.67;2.00;;;29.00;54.80;;;;;;4987709;28;20196;-81
2023/08/14 08:51:34;;;;;;;1.90;1.80;;;29.00;54.60;;;;;;5002785;28;20654;-80
2023/08/14 08:54:03;;;;;;;2.30;2.08;;;29.10;54.50;;;;;;5001242;28;20204;-80
2023/08/14 08:56:31;;;;;;;2.83;1.83;;;29.10;54.40;;;;;;5000158;28;20291;-80
2023/08/14 08:58:58;;;;;;;2.53;2.10;;;29.10;54.30;;;;;;5000445;28;20219;-80
2023/08/14 09:01:26;;;;;;;2.58;1.85;;;29.20;54.20;;;;;;4982942;28;20216;-80
2023/08/14 09:03:53;;;;;;;2.28;2.08;;;29.30;54.20;;;;;;4999930;28;20203;-80
2023/08/14 09:06:20;;;;;;;1.92;1.80;;;29.20;54.10;;;;;;4999497;28;20203;-80
2023/08/14 09:08:47;;;;;;;2.35;2.15;;;29.30;53.90;;;;;;5000215;28;20298;-80
2023/08/14 09:11:16;;;;;;;2.17;1.98;;;29.30;53.90;;;;;;4999815;28;20219;-81
2023/08/14 09:13:43;;;;;;;3.30;2.03;;;29.30;53.80;;;;;;5002315;28;20196;-80
2023/08/14 09:16:14;;;;;;;2.08;1.80;;;29.40;53.90;;;;;;5001962;28;20196;-80
2023/08/14 09:18:41;;;;;;;2.30;2.10;;;29.40;53.80;;;;;;5001436;28;20212;-80
2023/08/14 09:21:08;;;;;;;2.20;2.00;;;29.40;53.80;;;;;;5000891;28;20267;-80
2023/08/14 09:23:36;;;;;;;2.50;1.90;;;29.40;53.70;;;;;;5000931;28;20192;-80
2023/08/14 09:26:03;;;;;;;2.20;2.00;;;29.50;53.60;;;;;;4984698;28;20204;-80
2023/08/14 09:28:32;;;;;;;2.10;1.90;;;29.50;53.60;;;;;;5000356;28;20200;-80
2023/08/14 09:31:06;;;;;;;2.58;2.38;;;29.50;53.60;;;;;;5000183;28;20220;-80
2023/08/14 09:33:33;;;;;;;2.45;2.13;;;29.50;53.60;;;;;;5000991;28;20247;-80
2023/08/14 09:36:01;;;;;;;2.05;1.85;;;29.50;53.60;;;;;;5002016;28;20275;-81
2023/08/14 09:38:28;;;;;;;2.85;2.22;;;29.50;53.50;;;;;;5001280;28;20208;-80
2023/08/14 09:40:58;;;;;;;2.40;2.20;;;29.50;53.50;;;;;;5010194;28;20207;-80
2023/08/14 09:43:26;;;;;;;2.10;1.90;;;29.50;53.50;;;;;;5022344;28;20185;-81
2023/08/14 09:45:56;;;;;;;2.53;1.98;;;29.50;53.50;;;;;;5021545;28;20188;-81
2023/08/14 09:48:23;;;;;;;2.70;2.13;;;29.50;53.50;;;;;;5005282;28;20193;-80
2023/08/14 09:50:51;;;;;;;2.33;2.13;;;29.50;53.60;;;;;;4999884;28;20227;-80
2023/08/14 09:53:18;;;;;;;2.50;1.98;;;29.50;53.60;;;;;;4999089;28;20228;-80
2023/08/14 09:55:45;;;;;;;2.45;2.25;;;29.40;53.50;;;;;;4999337;28;20204;-80
2023/08/14 09:58:12;;;;;;;2.20;2.00;;;29.40;53.60;;;;;;4998571;28;20274;-80
2023/08/14 10:00:39;;;;;;;2.72;2.15;;;29.40;53.60;;;;;;4998108;28;20741;-80
2023/08/14 10:03:09;;;;;;;2.20;2.00;;;29.40;53.70;;;;;;4998910;28;20195;-80
2023/08/14 10:05:37;;;;;;;2.30;2.10;;;29.40;53.70;;;;;;5015764;28;20196;-80
2023/08/14 10:08:05;;;;;;;2.95;2.20;;;29.40;53.70;;;;;;4998806;28;20226;-80
2023/08/14 10:10:32;;;;;;;2.28;2.00;;;29.40;53.80;;;;;;4998304;28;20231;-80
2023/08/14 10:13:04;;;;;;;2.38;1.90;;;29.40;53.70;;;;;;4998246;28;20200;-80
2023/08/14 10:15:33;;;;;;;4.15;2.35;;;29.40;53.70;;;;;;4998456;28;20200;-80
2023/08/14 10:18:04;;;;;;;2.05;1.90;;;29.40;53.80;;;;;;4998579;28;20223;-80
2023/08/14 10:20:34;;;;;;;3.10;2.45;;;29.30;53.80;;;;;;4998585;28;20246;-80
2023/08/14 10:23:01;;;;;;;2.55;2.10;;;29.30;53.80;;;;;;4998363;28;20207;-80
2023/08/14 10:25:28;;;;;;;2.10;1.90;;;29.30;53.90;;;;;;4982839;28;20539;-79
2023/08/14 10:27:56;;;;;;;2.10;1.90;;;29.30;54.00;;;;;;4998226;28;20266;-79
2023/08/14 10:30:23;;;;;;;2.20;2.00;;;29.20;54.10;;;;;;4998209;28;20216;-79
2023/08/14 10:32:51;;;;;;;2.40;2.20;;;29.20;54.30;;;;;;4998520;28;20290;-79
2023/08/14 10:35:18;;;;;;;4.18;2.10;;;29.10;54.40;;;;;;4998030;28;20192;-79
2023/08/14 10:37:47;;;;;;;2.30;2.10;;;29.00;54.50;;;;;;4997937;28;20708;-79
2023/08/14 10:40:15;;;;;;;2.38;2.17;;;29.00;54.60;;;;;;4997732;28;20365;-79
2023/08/14 10:42:45;;;;;;;2.40;2.20;;;29.00;54.80;;;;;;4997766;28;20207;-79
2023/08/14 10:45:12;;;;;;;2.17;1.98;;;29.00;54.80;;;;;;4997602;28;20211;-79
2023/08/14 10:47:39;;;;;;;2.30;2.10;;;29.00;54.70;;;;;;4997536;28;20192;-79
2023/08/14 10:50:14;;;;;;;2.42;2.00;;;29.00;54.70;;;;;;4997443;28;20192;-79
2023/08/14 10:52:48;;;;;;;2.45;2.25;;;29.00;54.70;;;;;;4997433;28;20227;-79
2023/08/14 10:55:16;;;;;;;2.42;2.20;;;29.00;54.70;;;;;;4998349;28;20203;-79
2023/08/14 10:57:43;;;;;;;2.35;2.15;;;28.90;54.90;;;;;;4997868;28;20204;-79
2023/08/14 11:00:20;;;;;;;2.25;2.10;;;28.90;55.10;;;;;;4966105;28;20244;-80
2023/08/14 11:02:50;;;;;;;2.47;2.22;;;28.80;55.30;;;;;;5015183;28;20184;-80
2023/08/14 11:05:18;;;;;;;2.40;2.20;;;28.70;55.60;;;;;;4997348;28;20200;-80
2023/08/14 11:07:58;;;;;;;2.63;2.42;;;28.70;55.70;;;;;;4997676;28;20200;-80
2023/08/14 11:10:26;;;;;;;2.50;2.30;;;28.70;56.00;;;;;;4997894;28;20239;-80
2023/08/14 11:12:54;;;;;;;2.63;2.08;;;28.60;56.00;;;;;;4972809;28;20196;-80
2023/08/14 11:15:21;;;;;;;2.50;2.30;;;28.60;56.20;;;;;;4998670;28;20212;-80
2023/08/14 11:17:48;;;;;;;2.40;2.20;;;28.50;56.30;;;;;;4999838;28;20207;-80
2023/08/14 11:20:16;;;;;;;2.40;2.20;;;28.50;56.30;;;;;;4998980;28;20297;-80
2023/08/14 11:22:44;;;;;;;2.60;2.40;;;28.40;56.20;;;;;;4997472;28;20230;-80
2023/08/14 11:25:15;;;;;;;3.33;2.45;;;28.40;56.30;;;;;;5016740;28;20574;-81
2023/08/14 11:27:41;;;;;;;2.70;2.50;;;28.40;56.40;;;;;;5016041;28;20235;-81
2023/08/14 11:30:10;;;;;;;2.47;2.28;;;28.40;56.50;;;;;;5004636;28;20192;-81
2023/08/14 11:32:37;;;;;;;2.85;2.40;;;28.40;56.50;;;;;;5001159;28;20200;-81
2023/08/14 11:35:05;;;;;;;2.58;2.30;;;28.40;56.60;;;;;;5018179;28;20188;-81
2023/08/14 11:37:33;;;;;;;2.63;2.42;;;28.40;56.70;;;;;;4999831;28;20215;-81
2023/08/14 11:40:04;;;;;;;2.47;2.28;;;28.40;56.70;;;;;;4983958;28;20224;-81
2023/08/14 11:42:33;;;;;;;2.60;2.40;;;28.40;56.80;;;;;;4999284;28;20273;-81
2023/08/14 11:45:03;;;;;;;2.85;2.40;;;28.40;56.80;;;;;;4998750;28;20196;-81
2023/08/14 11:47:30;;;;;;;2.75;2.55;;;28.40;56.80;;;;;;4999527;28;20203;-81
2023/08/14 11:49:58;;;;;;;2.60;2.40;;;28.40;56.80;;;;;;4998648;28;20251;-81
2023/08/14 11:52:25;;;;;;;2.40;2.20;;;28.40;56.80;;;;;;4998882;28;20204;-81
2023/08/14 11:54:53;;;;;;;2.63;2.42;;;28.30;56.80;;;;;;4998498;28;20293;-81
2023/08/14 11:57:23;;;;;;;2.72;2.53;;;28.30;56.90;;;;;;4998718;28;20287;-81
2023/08/14 11:59:52;;;;;;;2.28;2.13;;;28.30;57.00;;;;;;4999291;28;20223;-81
2023/08/14 12:02:20;;;;;;;2.70;2.50;;;28.30;57.00;;;;;;4981401;28;20216;-81
2023/08/14 12:04:47;;;;;;;2.50;2.30;;;28.30;57.10;;;;;;4995735;28;20204;-80
2023/08/14 12:07:18;;;;;;;3.63;2.30;;;28.20;57.00;;;;;;4979779;28;20200;-80
2023/08/14 12:09:45;;;;;;;2.67;2.30;;;28.30;57.20;;;;;;4996137;28;20627;-80
2023/08/14 12:12:12;;;;;;;2.72;2.53;;;28.20;57.20;;;;;;4996380;28;20224;-80
2023/08/14 12:14:39;;;;;;;2.60;2.40;;;28.20;57.30;;;;;;4996061;28;20192;-80
2023/08/14 12:17:10;;;;;;;2.63;2.42;;;28.10;57.40;;;;;;4996752;28;20203;-80
2023/08/14 12:19:37;;;;;;;2.70;2.50;;;28.20;57.50;;;;;;4995737;28;20672;-80
2023/08/14 12:22:05;;;;;;;2.60;2.40;;;28.20;58.20;;;;;;5013153;28;20212;-80
2023/08/14 12:24:38;;;;;;;2.70;2.50;;;28.10;58.10;;;;;;4995677;28;20206;-81
2023/08/14 12:27:05;;;;;;;2.58;2.38;;;28.10;57.60;;;;;;4952561;28;1263088;-81
2023/08/14 12:29:32;;;;;;;2.72;2.50;;;28.10;57.60;;;;;;4997768;28;20266;-81
2023/08/14 12:32:00;;;;;;;2.65;2.38;;;28.00;57.70;;;;;;4997489;28;20229;-81
2023/08/14 12:34:28;;;;;;;2.92;2.50;;;28.00;57.70;;;;;;4998756;28;20192;-80
2023/08/14 12:36:56;;;;;;;2.90;2.70;;;28.00;57.90;;;;;;5000302;28;20254;-81
2023/08/14 12:39:23;;;;;;;2.67;2.47;;;28.00;57.90;;;;;;5000303;28;20243;-81
2023/08/14 12:41:55;;;;;;;2.90;2.70;;;28.00;58.00;;;;;;4999808;28;20322;-81
2023/08/14 12:44:22;;;;;;;3.03;2.72;;;27.90;58.10;;;;;;5000833;28;20196;-81
2023/08/14 12:46:49;;;;;;;3.10;2.90;;;27.90;58.10;;;;;;4999865;28;20200;-81
2023/08/14 12:49:16;;;;;;;2.70;2.50;;;27.90;58.10;;;;;;4999854;28;20606;-81
2023/08/14 12:51:45;;;;;;;2.75;2.55;;;27.90;58.20;;;;;;4999894;28;20286;-81